ADDS METAR Data INFO
IDs: Format: Raw Decoded Include TAF

Data at: 2211 UTC 24 Jun 2018

KLAX 242153Z 25010KT 10SM CLR 22/14 A2995 RMK AO2 SLP140 T02170139 $
KLAX 242053Z 23012KT 10SM FEW016 22/14 A2995 RMK AO2 WSHFT 2004 SLP142 T02170139 56002 $
KLAX 242023Z 25015KT 10SM FEW017 FEW022 23/14 A2995 RMK AO2 WSHFT 2004 T02280139 $
KLAX 241953Z VRB03KT 10SM FEW017 FEW022 22/13 A2995 RMK AO2 SLP142 T02220133 $
KLAX 241903Z 13008KT 070V140 10SM FEW021 SCT026 23/13 A2996 RMK AO2 T02280133 $
KLAX 241853Z 13005KT 10SM FEW021 BKN026 22/13 A2996 RMK AO2 SLP143 T02220133 $
KLAX 241753Z 12007KT 10SM OVC020 20/13 A2996 RMK AO2 SLP144 60000 T02000133 10200 20172 51014 $
KLAX 241653Z 11006KT 10SM FEW014 OVC019 19/13 A2995 RMK AO2 SLP140 T01890133 $
KLAX 241553Z 13006KT 10SM FEW012 OVC016 18/14 A2994 RMK AO2 DZE47 SLP136 P0000 T01830139 $
KLAX 241453Z 17007KT 9SM -DZ FEW012 OVC016 17/14 A2992 RMK AO2 SLP132 P0000 60000 T01720139 52016 $
KLAX 241430Z 16005KT 9SM -DZ FEW012 OVC016 17/14 A2992 RMK AO2 P0000 T01720139 $
KLAX 241353Z 13006KT 10SM -DZ FEW011 OVC014 17/14 A2991 RMK AO2 DZB12 SLP125 P0000 T01720139 $
KLAX 241253Z 11007KT 9SM OVC013 17/14 A2989 RMK AO2 SLP120 T01720139 $
KLAX 241153Z 11008KT 10SM OVC014 18/14 A2988 RMK AO2 SLP115 T01780139 10183 20172 53001 $
KLAX 241128Z 10006KT 10SM OVC014 18/14 A2987 RMK AO2 T01780139 $
KLAX 241053Z 13006KT 10SM OVC015 18/14 A2987 RMK AO2 SLP111 T01780139 $
KLAX 240953Z 11008KT 10SM OVC015 18/14 A2987 RMK AO2 SLP111 T01780139 $
KLAX 240853Z 13010G18KT 10SM OVC015 18/14 A2987 RMK AO2 SLP113 T01780139 50000 $
KLAX 240753Z 10007KT 080V150 10SM OVC016 18/13 A2987 RMK AO2 SLP112 T01780133 402170172 $
KLAX 240653Z 11008KT 10SM OVC017 18/14 A2988 RMK AO2 SLP115 T01780139 $
KLAX 240553Z 14008KT 10SM OVC018 18/13 A2987 RMK AO2 SLP113 T01830133 10211 20178 50010 $
KLAX 240453Z 16009G15KT 10SM BKN017 18/13 A2987 RMK AO2 SLP113 T01830133 $
KLAX 240414Z 16008KT 10SM FEW016 BKN022 18/13 A2986 RMK AO2 T01780133 $
KLAX 240353Z 12007KT 10SM FEW016 SCT020 SCT024 18/13 A2986 RMK AO2 SLP109 T01780133 $
KLAX 240253Z 14009KT 10SM FEW016 FEW022 SCT031 18/13 A2984 RMK AO2 SLP104 T01830133 55003 $
KLAX 240153Z 14010KT 10SM FEW017 FEW023 19/13 A2984 RMK AO2 SLP101 T01940133 $
KLAX 240053Z 17008KT 150V210 10SM FEW017 FEW023 21/13 A2983 RMK AO2 SLP100 T02060133 $
KLAX 232353Z 16013G21KT 10SM FEW018 SCT022 SCT025 21/14 A2985 RMK AO2 SLP106 T02110139 10217 20200 58010 $
KLAX 232324Z 15013G19KT 10SM FEW018 SCT022 SCT025 21/14 A2985 RMK AO2 T02110139 $
KLAX 232253Z 16009KT 10SM SCT021 BKN025 21/14 A2986 RMK AO2 SLP111 T02110139 $
KLAX 232153Z 14008G17KT 10SM FEW021 BKN024 21/14 A2987 RMK AO2 SLP115 T02110144 $
KLAX 232053Z 13010KT 10SM OVC022 21/14 A2988 RMK AO2 SLP117 T02110144 50005 $
KLAX 231953Z 15011G16KT 10SM OVC017 20/15 A2988 RMK AO2 SLP117 T02000150 $
KLAX 231853Z 14010KT 10SM OVC017 21/15 A2988 RMK AO2 SLP115 T02060150 $
KLAX 231813Z 13008KT 10SM OVC016 20/15 A2987 RMK AO2 T02000150 $
KLAX 231753Z 16008KT 10SM OVC014 20/15 A2987 RMK AO2 SLP112 T02000150 10206 20172 51010 $
KLAX 231653Z 14004KT 10SM OVC014 19/15 A2986 RMK AO2 SLP109 T01940150 $
KLAX 231553Z 14008KT 7SM OVC012 18/16 A2985 RMK AO2 SLP108 T01780156 $
KLAX 231453Z VRB06KT 5SM BR OVC010 17/16 A2984 RMK AO2 SLP103 T01720156 53012 $
KLAX 231353Z 16006KT 3SM BR OVC008 17/16 A2982 RMK AO2 SLP096 T01720156 $
KLAX 231253Z 16007KT 3SM BR OVC008 17/16 A2981 RMK AO2 SLP091 VIS W 2 1/2 T01720156 $
KLAX 231153Z 09005KT 7SM OVC008 18/16 A2980 RMK AO2 SLP090 T01780161 10183 20167 56003 $
KLAX 231053Z 07004KT 5SM BR SCT006 OVC008 18/16 A2980 RMK AO2 SLP090 VIS SW-W 2 T01780156 $